Domov
logo

Sponzorovaný hosting od WebSupport.sk
Vlastný virtuálny server od 5,65 € od WebSupport.sk

Aktuálne počasie

LZIB - letisko Bratislava

Hodnoty namerané: 19.07.2018, 00:00 SELČ
Aktuálny čas: 19.07.2018, 00:05 SELČ
Aktualizované: pred 5 min.
Teplota: 22°C
Rosný bod: 14°C
Vietor: 31 km/h 340° (SSZ)
Dohľadnosť: viac ako 10 km
Stav počasia: bez zrážok
Oblačnosť: jasno
Vlhkosť vzduchu: 61 %
Tlak vzduchu: 1012 hPa
METAR: LZIB 182200Z 34017KT CAVOK 22/14 Q1012

LZKZ - letisko Košice

Hodnoty namerané: 19.07.2018, 00:00 SELČ
Aktuálny čas: 19.07.2018, 00:05 SELČ
Aktualizované: pred 5 min.
Teplota: 19°C
Rosný bod: 18°C
Vietor: 6 km/h 100° (V)
Dohľadnosť: 9000 m
Stav počasia: slabý(á,é) dážď
Oblačnosť: malá oblačnosť na 610 m, zamračené na 1067 m
Základňa oblačnosti: 610 m
Vlhkosť vzduchu: 94 %
Tlak vzduchu: 1007 hPa
METAR: LZKZ 182200Z 10003KT 9000 -RA FEW020 OVC035 19/18 Q1007

LZPP - letisko Piešťany

Hodnoty namerané: 19.07.2018, 00:00 SELČ
Aktuálny čas: 19.07.2018, 00:05 SELČ
Aktualizované: pred 5 min.
Teplota: 18°C
Rosný bod: 16°C
Vietor: 17 km/h 350° (S)
Dohľadnosť: viac ako 10 km
Stav počasia: slabý(á,é) mrholenie
Oblačnosť: oblačno na 1158 m, oblačno na 2987 m, zamračené na 3658 m
Základňa oblačnosti: 1158 m
Vlhkosť vzduchu: 88 %
Tlak vzduchu: 1012 hPa
METAR: LZPP 182200Z AUTO 35009KT 9999 -DZ BKN038/// BKN098/// OVC120/// 18/16 Q1012

LZTT - letisko Poprad Tatry

Hodnoty namerané: 19.07.2018, 00:00 SELČ
Aktuálny čas: 19.07.2018, 00:05 SELČ
Aktualizované: pred 5 min.
Teplota: 16°C
Rosný bod: 15°C
Vietor: 22 km/h 270° (Z)
Dohľadnosť: viac ako 10 km
Stav počasia: bez zrážok
Oblačnosť: malá oblačnosť na 305 m, oblačno na 1402 m, oblačno na 2652 m
Základňa oblačnosti: 305 m
Vlhkosť vzduchu: 94 %
Tlak vzduchu: 1009 hPa
METAR: LZTT 182200Z 27012KT 9999 FEW010 BKN046 BKN087 16/15 Q1009

LZSL - letisko Sliač

Hodnoty namerané: 19.07.2018, 00:00 SELČ
Aktuálny čas: 19.07.2018, 00:05 SELČ
Aktualizované: pred 5 min.
Teplota: 18°C
Rosný bod: 16°C
Vietor: 11 km/h 260° (Z)
Dohľadnosť: viac ako 10 km
Stav počasia: slabý(á,é) dážď
Oblačnosť: polooblačno na 1311 m
Základňa oblačnosti: 1311 m
Vlhkosť vzduchu: 88 %
Tlak vzduchu: 1009 hPa
METAR: LZSL 182200Z 26006KT 9999 -RA SCT043 18/16 Q1009

LZZI - letisko Žilina

Hodnoty namerané: 19.07.2018, 00:00 SELČ
Aktuálny čas: 19.07.2018, 00:05 SELČ
Aktualizované: pred 5 min.
Teplota: 18°C
Rosný bod: 16°C
Vietor: 6 km/h 140° (JV) kolíše v rozsahu 90°-190° (V-J)
Dohľadnosť: viac ako 10 km
Stav počasia: slabý(á,é) mrholenie
Oblačnosť: oblačno na 701 m, zamračené na 1219 m
Základňa oblačnosti: 701 m
Vlhkosť vzduchu: 88 %
Tlak vzduchu: 1011 hPa
METAR: LZZI 182200Z 14003KT 090V190 9999 -DZ BKN023 OVC040 18/16 Q1011

POZNÁMKY:

SEČ - stredoeurópsky čas (UTC+1hod.)

SELČ - stredoeurópsky letný čas (UTC+2hod.)

UTC - univerzálny svetový čas, GMT, ZULU

METAR - sú pravidelné kódované letecké meteorologické správy. Tie zostavujú a zverejňujú meteorologické stanice letísk v polhodinových/hodinových intervaloch. Na tejto stránke správy METAR zo slovenských letísk nájdete už v dekódovanej podobe.

hore